createdAt,value
2022-10-18T00:01:17.147Z,99883.50
2022-10-18T00:03:44.308Z,99875.63
2022-10-18T00:06:11.442Z,99876.84
2022-10-18T00:08:39.073Z,99875.00
2022-10-18T00:11:06.540Z,99871.75
2022-10-18T00:13:34.093Z,99857.72
2022-10-18T00:16:03.397Z,99851.72
2022-10-18T00:18:30.672Z,99856.91
2022-10-18T00:21:17.113Z,99862.25
2022-10-18T00:23:47.276Z,99865.75
2022-10-18T00:26:20.215Z,99862.34
2022-10-18T00:28:51.628Z,99834.41
2022-10-18T00:31:26.153Z,99849.19
2022-10-18T00:33:56.100Z,99844.47
2022-10-18T00:36:23.407Z,99838.94
2022-10-18T00:38:52.942Z,99844.06
2022-10-18T00:41:23.058Z,99843.91
2022-10-18T00:44:00.792Z,99843.69
2022-10-18T00:46:36.078Z,99857.06
2022-10-18T00:49:27.120Z,99846.75
2022-10-18T00:52:03.684Z,99833.13
2022-10-18T00:54:39.771Z,99832.69
2022-10-18T00:57:09.455Z,99833.69
2022-10-18T00:59:39.465Z,99824.19
2022-10-18T01:02:11.669Z,99807.03
2022-10-18T01:04:39.038Z,99812.53
2022-10-18T01:07:26.724Z,99810.78
2022-10-18T01:10:10.770Z,99809.25
2022-10-18T01:13:25.675Z,99804.72
2022-10-18T01:16:14.268Z,99805.66
2022-10-18T01:19:10.519Z,99799.56
2022-10-18T01:21:48.222Z,99794.09
2022-10-18T01:24:33.556Z,99796.22
2022-10-18T01:27:12.589Z,99797.03
2022-10-18T01:30:16.282Z,99800.16
2022-10-18T01:32:52.105Z,99795.66
2022-10-18T01:35:23.752Z,99794.19
2022-10-18T01:37:57.228Z,99785.13
2022-10-18T01:40:25.100Z,99793.59
2022-10-18T01:42:53.265Z,99790.72
2022-10-18T01:45:21.971Z,99790.91
2022-10-18T01:47:50.520Z,99771.56
2022-10-18T01:50:29.648Z,99770.53
2022-10-18T01:52:56.891Z,99776.34
2022-10-18T01:55:29.260Z,99781.69
2022-10-18T01:58:28.667Z,99773.22
2022-10-18T02:01:03.864Z,99767.47
2022-10-18T02:03:30.929Z,99761.47
2022-10-18T02:06:26.573Z,99766.22
2022-10-18T02:08:54.786Z,99773.22
2022-10-18T02:11:22.318Z,99767.47
2022-10-18T02:14:06.439Z,99767.69
2022-10-18T02:16:39.215Z,99762.75
2022-10-18T02:19:29.301Z,99761.47
2022-10-18T02:22:00.358Z,99751.78
2022-10-18T02:24:39.882Z,99762.50
2022-10-18T02:27:06.991Z,99759.19
2022-10-18T02:29:37.112Z,99746.44
2022-10-18T02:32:18.093Z,99734.53
2022-10-18T02:34:49.739Z,99737.84
2022-10-18T02:37:17.484Z,99724.00
2022-10-18T02:39:47.336Z,99728.34
2022-10-18T02:42:15.275Z,99728.53
2022-10-18T02:44:42.435Z,99726.06
2022-10-18T02:47:11.288Z,99719.03
2022-10-18T02:49:41.190Z,99726.06
2022-10-18T02:52:08.139Z,99719.03
2022-10-18T02:54:35.236Z,99716.38
2022-10-18T02:57:02.131Z,99716.81
2022-10-18T02:59:29.058Z,99703.63
2022-10-18T03:01:59.910Z,99695.78
2022-10-18T03:04:29.767Z,99699.50
2022-10-18T03:06:58.404Z,99691.84
2022-10-18T03:09:28.221Z,99693.50
2022-10-18T03:11:55.099Z,99690.81
2022-10-18T03:14:22.100Z,99680.13
2022-10-18T03:16:49.526Z,99669.38
2022-10-18T03:19:16.547Z,99668.78
2022-10-18T03:21:43.478Z,99668.97
2022-10-18T03:24:15.841Z,99660.31
2022-10-18T03:26:45.949Z,99663.00
2022-10-18T03:29:13.080Z,99643.22
2022-10-18T03:31:40.025Z,99656.19
2022-10-18T03:34:06.930Z,99652.47
2022-10-18T03:36:34.509Z,99641.16
2022-10-18T03:39:01.508Z,99639.31
2022-10-18T03:41:28.444Z,99630.81
2022-10-18T03:43:55.415Z,99628.75
2022-10-18T03:46:22.301Z,99610.38
2022-10-18T03:48:49.275Z,99621.09
2022-10-18T03:51:20.701Z,99615.72
2022-10-18T03:53:48.757Z,99603.56
2022-10-18T03:56:15.664Z,99602.13
2022-10-18T03:58:42.692Z,99603.31
2022-10-18T04:01:14.927Z,99591.41
2022-10-18T04:03:41.932Z,99600.06
2022-10-18T04:06:14.207Z,99589.84
2022-10-18T04:08:41.056Z,99600.13
2022-10-18T04:11:08.616Z,99592.75
2022-10-18T04:13:35.887Z,99594.22
2022-10-18T04:16:03.068Z,99575.09
2022-10-18T04:18:30.069Z,99584.19
2022-10-18T04:20:57.111Z,99582.97
2022-10-18T04:23:26.836Z,99579.06
2022-10-18T04:25:56.965Z,99569.00
2022-10-18T04:31:04.657Z,99565.34
2022-10-18T04:33:34.827Z,99569.47
2022-10-18T04:36:04.145Z,99570.94
2022-10-18T04:38:31.020Z,99559.41
2022-10-18T04:40:57.924Z,99567.03
2022-10-18T04:43:27.996Z,99557.97
2022-10-18T04:45:54.910Z,99555.94
2022-10-18T04:48:21.912Z,99553.50
2022-10-18T04:50:51.566Z,99544.25
2022-10-18T04:53:21.138Z,99540.56
2022-10-18T04:55:55.127Z,99529.84
2022-10-18T04:58:22.106Z,99537.47
2022-10-18T05:00:51.642Z,99530.06
2022-10-18T05:03:19.029Z,99521.41
2022-10-18T05:06:03.815Z,99516.91
2022-10-18T05:08:31.526Z,99514.84
2022-10-18T05:10:59.572Z,99512.78
2022-10-18T05:13:26.780Z,99517.75
2022-10-18T05:15:53.950Z,99519.00
2022-10-18T05:18:23.916Z,99510.34
2022-10-18T05:20:50.907Z,99522.50
2022-10-18T05:23:20.368Z,99531.34
2022-10-18T05:25:48.447Z,99530.75
2022-10-18T05:28:38.192Z,99538.38
2022-10-18T05:31:06.865Z,99541.69
2022-10-18T05:33:36.712Z,99531.41
2022-10-18T05:36:04.217Z,99534.06
2022-10-18T05:38:31.553Z,99541.53
2022-10-18T05:40:59.633Z,99533.91
2022-10-18T05:46:15.365Z,99532.66
2022-10-18T05:48:44.583Z,99529.00
2022-10-18T05:51:11.653Z,99516.06
2022-10-18T05:53:38.613Z,99514.59
2022-10-18T05:56:10.365Z,99512.38
2022-10-18T05:58:37.963Z,99504.72
2022-10-18T06:01:08.195Z,99500.81
2022-10-18T06:03:39.089Z,99502.25
2022-10-18T06:06:16.365Z,99491.56
2022-10-18T06:08:52.199Z,99482.28
2022-10-18T06:11:23.140Z,99487.22
2022-10-18T06:13:52.790Z,99466.81
2022-10-18T06:16:21.675Z,99475.47
2022-10-18T06:18:53.662Z,99471.78
2022-10-18T06:21:21.661Z,99466.00
2022-10-18T06:23:58.444Z,99474.03
2022-10-18T06:26:26.984Z,99473.84
2022-10-18T06:28:54.077Z,99470.31
2022-10-18T06:31:21.847Z,99451.56
2022-10-18T06:33:50.958Z,99444.97
2022-10-18T06:36:22.295Z,99441.69
2022-10-18T06:38:52.732Z,99421.06
2022-10-18T06:41:20.610Z,99405.38
2022-10-18T06:43:51.778Z,99376.94
2022-10-18T06:46:19.059Z,99359.00
2022-10-18T06:48:46.375Z,99327.88
2022-10-18T06:51:13.339Z,99318.41
2022-10-18T06:53:44.406Z,99315.28
2022-10-18T06:56:25.228Z,99324.16
2022-10-18T06:58:52.217Z,99321.28
2022-10-18T07:01:19.568Z,99316.94
2022-10-18T07:03:48.349Z,99297.34
2022-10-18T07:06:17.238Z,99281.28
2022-10-18T07:08:44.851Z,99278.16
2022-10-18T07:11:24.219Z,99280.84
2022-10-18T07:13:55.564Z,99266.81
2022-10-18T07:16:24.916Z,99244.75
2022-10-18T07:18:52.082Z,99231.59
2022-10-18T07:21:24.444Z,99223.53
2022-10-18T07:23:59.579Z,99210.72
2022-10-18T07:26:29.305Z,99192.19
2022-10-18T07:28:59.301Z,99204.56
2022-10-18T07:31:29.506Z,99185.97
2022-10-18T07:33:59.741Z,99171.72
2022-10-18T07:36:26.797Z,99162.63
2022-10-18T07:38:58.616Z,99137.44
2022-10-18T07:41:25.984Z,99123.44
2022-10-18T07:43:53.959Z,99106.34
2022-10-18T07:46:25.536Z,99085.72
2022-10-18T07:48:55.303Z,99086.97
2022-10-18T07:51:22.756Z,99075.00
2022-10-18T07:53:56.757Z,99063.44
2022-10-18T07:56:24.007Z,99060.41
2022-10-18T07:58:53.134Z,99063.06
2022-10-18T08:01:21.575Z,99050.88
2022-10-18T08:03:49.037Z,99045.50
2022-10-18T08:06:18.538Z,99016.81
2022-10-18T08:08:45.813Z,98998.28
2022-10-18T08:11:20.324Z,98972.50
2022-10-18T08:13:47.638Z,98948.81
2022-10-18T08:16:19.624Z,98922.25
2022-10-18T08:18:49.796Z,98911.59
2022-10-18T08:21:17.994Z,98906.06
2022-10-18T08:23:45.056Z,98915.16
2022-10-18T08:26:17.419Z,98902.31
2022-10-18T08:28:53.571Z,98881.72
2022-10-18T08:31:28.425Z,98891.59
2022-10-18T08:33:57.270Z,98855.13
2022-10-18T08:36:24.765Z,98833.53
2022-10-18T08:38:54.876Z,98811.28
2022-10-18T08:41:50.970Z,98793.13
2022-10-18T08:44:21.863Z,98776.22
2022-10-18T08:46:55.420Z,98767.16
2022-10-18T08:49:36.479Z,98755.97
2022-10-18T08:52:04.552Z,98731.06
2022-10-18T08:55:00.713Z,98729.78
2022-10-18T08:57:28.263Z,98721.28
2022-10-18T08:59:55.656Z,98710.56
2022-10-18T09:02:32.081Z,98712.34
2022-10-18T09:05:36.208Z,98710.41
2022-10-18T09:08:15.586Z,98714.16
2022-10-18T09:11:08.121Z,98730.84
2022-10-18T09:13:55.541Z,98735.50
2022-10-18T09:16:31.490Z,98723.75
2022-10-18T09:19:10.618Z,98716.72
2022-10-18T09:21:54.012Z,98711.59
2022-10-18T09:24:36.007Z,98703.09
2022-10-18T09:27:14.644Z,98685.09
2022-10-18T09:29:54.797Z,98680.81
2022-10-18T09:32:46.728Z,98679.47
2022-10-18T09:35:33.861Z,98667.13
2022-10-18T09:38:08.767Z,98662.94
2022-10-18T09:40:44.251Z,98643.25
2022-10-18T09:43:17.416Z,98642.31
2022-10-18T09:45:45.914Z,98654.00
2022-10-18T09:48:59.425Z,98652.38
2022-10-18T09:51:35.363Z,98632.53
2022-10-18T09:54:20.778Z,98629.28
2022-10-18T09:56:59.870Z,98638.38
2022-10-18T09:59:45.423Z,98622.41
2022-10-18T10:02:24.329Z,98628.91
2022-10-18T10:04:54.369Z,98616.88
2022-10-18T10:07:26.832Z,98612.50
2022-10-18T10:10:00.232Z,98595.69
2022-10-18T10:12:29.413Z,98599.28
2022-10-18T10:15:20.172Z,98597.84
2022-10-18T10:18:17.518Z,98597.00
2022-10-18T10:20:50.874Z,98590.91
2022-10-18T10:23:27.214Z,98584.50
2022-10-18T10:25:59.296Z,98586.25
2022-10-18T10:28:29.490Z,98605.41
2022-10-18T10:31:16.681Z,98588.31
2022-10-18T10:33:48.148Z,98583.84
2022-10-18T10:36:20.865Z,98578.91
2022-10-18T10:39:06.536Z,98575.44
2022-10-18T10:41:36.095Z,98583.63
2022-10-18T10:44:05.573Z,98565.72
2022-10-18T10:46:36.681Z,98572.22
2022-10-18T10:49:35.074Z,98569.38
2022-10-18T10:52:08.314Z,98570.50
2022-10-18T10:54:39.226Z,98550.69
2022-10-18T10:57:08.721Z,98556.97
2022-10-18T10:59:51.724Z,98568.38
2022-10-18T11:02:36.304Z,98561.19
2022-10-18T11:05:23.428Z,98550.84
2022-10-18T11:07:52.745Z,98549.03
2022-10-18T11:10:21.743Z,98542.06
2022-10-18T11:13:01.649Z,98526.31
2022-10-18T11:15:38.627Z,98526.38
2022-10-18T11:18:17.222Z,98534.75
2022-10-18T11:21:08.769Z,98537.28
2022-10-18T11:23:37.911Z,98551.63
2022-10-18T11:26:13.543Z,98541.25
2022-10-18T11:29:02.198Z,98532.16
2022-10-18T11:31:56.309Z,98534.34
2022-10-18T11:34:38.424Z,98531.97
2022-10-18T11:37:39.506Z,98533.09
2022-10-18T11:40:40.155Z,98535.03
2022-10-18T11:43:30.357Z,98539.44
2022-10-18T11:46:21.962Z,98534.38
2022-10-18T11:49:04.432Z,98538.75
2022-10-18T11:51:50.313Z,98535.00
2022-10-18T11:54:32.474Z,98540.47
2022-10-18T11:57:11.530Z,98534.59
2022-10-18T11:59:45.549Z,98543.28
2022-10-18T12:02:22.939Z,98534.97
2022-10-18T12:05:22.468Z,98557.69
2022-10-18T12:07:59.290Z,98539.38
2022-10-18T12:10:44.191Z,98530.50
2022-10-18T12:13:19.642Z,98538.09
2022-10-18T12:15:47.919Z,98540.03
2022-10-18T12:18:19.416Z,98536.56
2022-10-18T12:20:57.998Z,98541.44
2022-10-18T12:23:33.725Z,98540.13
2022-10-18T12:26:06.701Z,98540.38
2022-10-18T12:28:51.736Z,98542.88
2022-10-18T12:31:26.930Z,98524.00
2022-10-18T12:34:22.691Z,98533.47
2022-10-18T12:37:00.349Z,98536.47
2022-10-18T12:42:26.066Z,98535.94
2022-10-18T12:45:06.715Z,98530.00
2022-10-18T12:47:36.826Z,98535.41
2022-10-18T12:50:23.172Z,98532.44
2022-10-18T12:53:14.935Z,98532.78
2022-10-18T12:55:44.689Z,98528.44
2022-10-18T12:58:14.784Z,98535.25
2022-10-18T13:00:41.863Z,98523.44
2022-10-18T13:03:18.130Z,98524.53
2022-10-18T13:05:56.314Z,98537.59
2022-10-18T13:08:51.099Z,98520.56
2022-10-18T13:11:33.472Z,98530.03
2022-10-18T13:14:17.426Z,98525.47
2022-10-18T13:17:04.749Z,98536.31
2022-10-18T13:20:02.966Z,98537.16
2022-10-18T13:22:49.856Z,98532.34
2022-10-18T13:25:55.208Z,98530.19
2022-10-18T13:28:25.737Z,98537.22
2022-10-18T13:31:29.454Z,98538.31
2022-10-18T13:34:28.221Z,98533.19
2022-10-18T13:37:00.836Z,98517.78
2022-10-18T13:39:29.350Z,98530.22
2022-10-18T13:41:58.132Z,98531.84
2022-10-18T13:44:33.372Z,98525.91
2022-10-18T13:47:00.298Z,98543.25
2022-10-18T13:49:39.455Z,98540.25
2022-10-18T13:52:47.917Z,98544.31
2022-10-18T13:55:40.266Z,98540.03
2022-10-18T13:58:31.290Z,98553.00
2022-10-18T14:01:22.138Z,98535.44
2022-10-18T14:04:24.504Z,98533.50
2022-10-18T14:06:52.252Z,98532.69
2022-10-18T14:09:32.750Z,98525.41
2022-10-18T14:12:31.591Z,98577.28
2022-10-18T14:15:08.219Z,98576.72
2022-10-18T14:17:56.949Z,98585.91
2022-10-18T14:20:30.156Z,98580.19
2022-10-18T14:23:11.969Z,98588.28
2022-10-18T14:25:39.210Z,98580.91
2022-10-18T14:28:27.077Z,98584.34
2022-10-18T14:31:18.660Z,98593.72
2022-10-18T14:33:57.579Z,98596.03
2022-10-18T14:36:27.608Z,98601.38
2022-10-18T14:39:03.171Z,98583.78
2022-10-18T14:41:34.876Z,98605.78
2022-10-18T14:44:22.699Z,98597.66
2022-10-18T14:47:01.951Z,98595.66
2022-10-18T14:49:31.086Z,98609.09
2022-10-18T14:51:59.578Z,98606.41
2022-10-18T14:54:34.517Z,98582.06
2022-10-18T14:57:02.491Z,98613.19
2022-10-18T14:59:52.779Z,98621.31
2022-10-18T15:02:22.897Z,98619.16
2022-10-18T15:04:58.600Z,98634.81
2022-10-18T15:07:28.767Z,98631.59
2022-10-18T15:09:57.844Z,98631.03
2022-10-18T15:12:25.116Z,98636.91
2022-10-18T15:14:52.575Z,98625.88
2022-10-18T15:17:27.818Z,98643.69
2022-10-18T15:20:06.352Z,98639.59
2022-10-18T15:22:33.882Z,98647.69
2022-10-18T15:25:21.508Z,98654.78
2022-10-18T15:28:01.048Z,98668.34
2022-10-18T15:30:39.429Z,98675.34
2022-10-18T15:33:10.503Z,98677.53
2022-10-18T15:35:38.819Z,98679.19
2022-10-18T15:38:16.606Z,98684.53
2022-10-18T15:40:44.554Z,98680.47
2022-10-18T15:43:26.544Z,98687.13
2022-10-18T15:46:01.846Z,98687.25
2022-10-18T15:48:43.187Z,98700.63
2022-10-18T15:51:31.087Z,98687.31
2022-10-18T15:53:59.100Z,98700.38
2022-10-18T15:56:27.939Z,98691.25
2022-10-18T15:58:57.167Z,98704.16
2022-10-18T16:01:27.025Z,98707.44
2022-10-18T16:06:22.230Z,98713.09
2022-10-18T16:08:52.903Z,98715.16
2022-10-18T16:11:22.831Z,98718.56
2022-10-18T16:13:57.819Z,98711.25
2022-10-18T16:16:28.661Z,98721.69
2022-10-18T16:18:55.940Z,98722.84
2022-10-18T16:21:28.835Z,98735.59
2022-10-18T16:24:00.992Z,98733.22
2022-10-18T16:26:28.777Z,98732.16
2022-10-18T16:28:56.266Z,98737.28
2022-10-18T16:31:26.537Z,98740.78
2022-10-18T16:33:55.054Z,98735.84
2022-10-18T16:36:25.559Z,98723.00
2022-10-18T16:38:54.348Z,98745.81
2022-10-18T16:41:22.236Z,98755.69
2022-10-18T16:43:50.400Z,98759.13
2022-10-18T16:46:22.964Z,98747.84
2022-10-18T16:48:51.296Z,98756.59
2022-10-18T16:51:18.304Z,98756.66
2022-10-18T16:53:45.959Z,98764.84
2022-10-18T16:56:33.490Z,98764.34
2022-10-18T16:59:00.581Z,98773.25
2022-10-18T17:01:27.589Z,98771.59
2022-10-18T17:03:55.432Z,98771.38
2022-10-18T17:06:23.343Z,98774.66
2022-10-18T17:08:53.973Z,98773.00
2022-10-18T17:11:24.375Z,98774.06
2022-10-18T17:13:51.673Z,98771.38
2022-10-18T17:19:03.739Z,98760.50
2022-10-18T17:21:31.737Z,98761.09
2022-10-18T17:24:01.006Z,98753.41
2022-10-18T17:26:29.980Z,98755.19
2022-10-18T17:29:05.344Z,98773.75
2022-10-18T17:31:33.703Z,98790.63
2022-10-18T17:34:11.581Z,98780.09
2022-10-18T17:36:38.765Z,98783.78
2022-10-18T17:39:08.956Z,98780.31
2022-10-18T17:41:38.798Z,98784.56
2022-10-18T17:44:06.440Z,98789.63
2022-10-18T17:46:35.235Z,98784.38
2022-10-18T17:49:08.294Z,98796.34
2022-10-18T17:51:35.838Z,98806.28
2022-10-18T17:54:03.158Z,98811.44
2022-10-18T17:56:33.547Z,98797.41
2022-10-18T17:59:06.308Z,98806.78
2022-10-18T18:01:33.658Z,98809.84
2022-10-18T18:04:02.631Z,98802.03
2022-10-18T18:06:36.018Z,98810.59
2022-10-18T18:09:09.549Z,98803.38
2022-10-18T18:11:40.723Z,98802.44
2022-10-18T18:14:09.197Z,98805.31
2022-10-18T18:16:44.100Z,98810.34
2022-10-18T18:19:15.227Z,98810.69
2022-10-18T18:21:58.811Z,98798.91
2022-10-18T18:24:26.493Z,98788.13
2022-10-18T18:26:55.572Z,98814.91
2022-10-18T18:29:23.580Z,98796.06
2022-10-18T18:31:51.092Z,98798.28
2022-10-18T18:34:21.340Z,98799.88
2022-10-18T18:36:54.194Z,98797.19
2022-10-18T18:39:24.058Z,98808.06
2022-10-18T18:41:52.369Z,98810.03
2022-10-18T18:44:22.360Z,98806.38
2022-10-18T18:46:49.751Z,98801.94
2022-10-18T18:49:22.337Z,98814.44
2022-10-18T18:51:52.222Z,98795.72
2022-10-18T18:54:19.647Z,98803.88
2022-10-18T18:56:55.121Z,98801.88
2022-10-18T18:59:22.132Z,98798.38
2022-10-18T19:01:56.438Z,98796.59
2022-10-18T19:04:32.609Z,98809.25
2022-10-18T19:07:02.597Z,98828.06
2022-10-18T19:09:38.845Z,98813.75
2022-10-18T19:12:05.975Z,98823.81
2022-10-18T19:14:33.226Z,98817.44
2022-10-18T19:17:01.724Z,98830.66
2022-10-18T19:19:33.074Z,98822.38
2022-10-18T19:22:03.782Z,98822.81
2022-10-18T19:24:32.652Z,98826.19
2022-10-18T19:27:14.692Z,98816.66
2022-10-18T19:29:48.325Z,98826.94
2022-10-18T19:32:18.720Z,98822.22
2022-10-18T19:34:48.345Z,98817.31
2022-10-18T19:37:15.745Z,98807.06
2022-10-18T19:39:43.910Z,98817.56
2022-10-18T19:42:27.482Z,98811.22
2022-10-18T19:44:57.602Z,98823.22
2022-10-18T19:47:26.090Z,98833.09
2022-10-18T19:49:55.239Z,98818.97
2022-10-18T19:52:24.548Z,98815.59
2022-10-18T19:54:51.483Z,98817.72
2022-10-18T19:57:18.433Z,98807.19
2022-10-18T19:59:52.573Z,98819.06
2022-10-18T20:02:22.708Z,98814.63
2022-10-18T20:04:51.955Z,98814.84
2022-10-18T20:07:21.963Z,98820.00
2022-10-18T20:09:48.978Z,98823.22
2022-10-18T20:12:21.686Z,98808.78
2022-10-18T20:14:51.276Z,98801.75
2022-10-18T20:17:27.712Z,98801.47
2022-10-18T20:19:57.378Z,98788.84
2022-10-18T20:22:24.334Z,98783.03
2022-10-18T20:24:51.258Z,98790.41
2022-10-18T20:27:18.172Z,98783.75
2022-10-18T20:29:46.392Z,98790.16
2022-10-18T20:32:31.230Z,98793.28
2022-10-18T20:34:58.323Z,98795.63
2022-10-18T20:37:25.237Z,98785.91
2022-10-18T20:39:52.291Z,98795.38
2022-10-18T20:42:19.808Z,98790.47
2022-10-18T20:44:48.050Z,98793.84
2022-10-18T20:47:15.011Z,98795.97
2022-10-18T20:49:42.141Z,98778.19
2022-10-18T20:52:09.025Z,98778.06
2022-10-18T20:54:36.013Z,98773.84
2022-10-18T20:57:03.124Z,98770.22
2022-10-18T20:59:30.200Z,98775.78
2022-10-18T21:01:57.149Z,98794.38
2022-10-18T21:04:24.171Z,98799.13
2022-10-18T21:06:53.682Z,98783.63
2022-10-18T21:09:20.635Z,98788.53
2022-10-18T21:11:50.453Z,98778.84
2022-10-18T21:14:19.393Z,98790.75
2022-10-18T21:16:46.929Z,98785.38
2022-10-18T21:19:17.202Z,98782.94
2022-10-18T21:21:51.535Z,98789.13
2022-10-18T21:24:22.096Z,98787.03
2022-10-18T21:26:49.436Z,98773.63
2022-10-18T21:29:21.552Z,98769.88
2022-10-18T21:31:54.996Z,98778.53
2022-10-18T21:34:22.323Z,98774.44
2022-10-18T21:36:49.521Z,98773.84
2022-10-18T21:39:21.685Z,98762.06
2022-10-18T21:41:51.527Z,98761.22
2022-10-18T21:44:18.604Z,98767.78
2022-10-18T21:46:46.895Z,98778.06
2022-10-18T21:49:15.115Z,98767.56
2022-10-18T21:51:42.322Z,98774.66
2022-10-18T21:54:12.793Z,98771.84
2022-10-18T21:56:39.868Z,98775.56
2022-10-18T21:59:11.111Z,98760.28
2022-10-18T22:01:39.043Z,98761.91
2022-10-18T22:04:16.052Z,98748.75
2022-10-18T22:06:46.012Z,98740.91
2022-10-18T22:09:15.472Z,98739.63
2022-10-18T22:11:49.483Z,98738.13
2022-10-18T22:14:16.752Z,98730.09
2022-10-18T22:16:43.664Z,98730.56
2022-10-18T22:19:12.597Z,98728.44
2022-10-18T22:21:39.782Z,98725.75
2022-10-18T22:24:09.567Z,98720.16
2022-10-18T22:26:38.952Z,98709.09
2022-10-18T22:29:17.356Z,98712.44
2022-10-18T22:31:54.443Z,98722.94
2022-10-18T22:34:28.747Z,98711.75
2022-10-18T22:36:56.435Z,98716.88
2022-10-18T22:39:26.287Z,98721.34
2022-10-18T22:41:56.367Z,98721.47
2022-10-18T22:44:24.311Z,98717.75
2022-10-18T22:46:51.231Z,98722.63
2022-10-18T22:49:20.633Z,98712.16
2022-10-18T22:51:47.720Z,98719.75
2022-10-18T22:54:17.426Z,98723.63
2022-10-18T22:56:44.938Z,98707.50
2022-10-18T22:59:12.515Z,98712.41
2022-10-18T23:01:39.834Z,98699.31
2022-10-18T23:04:06.735Z,98693.75
2022-10-18T23:06:35.597Z,98686.97
2022-10-18T23:09:06.068Z,98685.69
2022-10-18T23:11:34.455Z,98684.03
2022-10-18T23:14:03.812Z,98678.91
2022-10-18T23:16:30.950Z,98674.44
2022-10-18T23:19:02.372Z,98668.84
2022-10-18T23:21:29.699Z,98654.25
2022-10-18T23:23:57.560Z,98646.31
2022-10-18T23:26:26.232Z,98645.94
2022-10-18T23:28:54.143Z,98647.50
2022-10-18T23:31:26.628Z,98647.25
2022-10-18T23:33:55.679Z,98638.75
2022-10-18T23:36:23.853Z,98642.00
2022-10-18T23:38:51.468Z,98640.28
2022-10-18T23:41:18.571Z,98638.16
2022-10-18T23:43:45.994Z,98625.56
2022-10-18T23:46:14.065Z,98611.41
2022-10-18T23:48:41.079Z,98620.06
2022-10-18T23:51:08.864Z,98623.00
2022-10-18T23:53:36.649Z,98630.22
2022-10-18T23:56:06.669Z,98634.31
2022-10-18T23:58:37.394Z,98627.66
